sensor_id;sensor_type;location;lat;lon;timestamp;P1;durP1;ratioP1;P2;durP2;ratioP2
64957;SDS011;51486;50.232;19.208;2023-02-22T00:00:18;32.13;;;9.80;;
64957;SDS011;51486;50.232;19.208;2023-02-22T00:03:17;32.43;;;9.77;;
64957;SDS011;51486;50.232;19.208;2023-02-22T00:06:14;32.20;;;8.97;;
64957;SDS011;51486;50.232;19.208;2023-02-22T00:09:00;23.83;;;8.40;;
64957;SDS011;51486;50.232;19.208;2023-02-22T00:11:47;37.57;;;9.90;;
64957;SDS011;51486;50.232;19.208;2023-02-22T00:14:33;18.33;;;7.13;;
64957;SDS011;51486;50.232;19.208;2023-02-22T00:17:19;24.87;;;7.47;;
64957;SDS011;51486;50.232;19.208;2023-02-22T00:20:05;30.87;;;7.27;;
64957;SDS011;51486;50.232;19.208;2023-02-22T00:22:51;17.80;;;6.83;;
64957;SDS011;51486;50.232;19.208;2023-02-22T00:25:37;30.67;;;9.03;;
64957;SDS011;51486;50.232;19.208;2023-02-22T00:28:23;21.73;;;7.10;;
64957;SDS011;51486;50.232;19.208;2023-02-22T00:31:10;22.90;;;8.50;;
64957;SDS011;51486;50.232;19.208;2023-02-22T00:33:55;36.10;;;8.23;;
64957;SDS011;51486;50.232;19.208;2023-02-22T00:36:45;20.10;;;7.67;;
64957;SDS011;51486;50.232;19.208;2023-02-22T00:39:31;26.60;;;7.97;;
64957;SDS011;51486;50.232;19.208;2023-02-22T00:42:17;19.50;;;8.03;;
64957;SDS011;51486;50.232;19.208;2023-02-22T00:45:04;18.93;;;7.43;;
64957;SDS011;51486;50.232;19.208;2023-02-22T00:47:51;19.50;;;9.17;;
64957;SDS011;51486;50.232;19.208;2023-02-22T00:50:38;22.27;;;7.80;;
64957;SDS011;51486;50.232;19.208;2023-02-22T00:53:24;24.83;;;8.60;;
64957;SDS011;51486;50.232;19.208;2023-02-22T00:56:11;20.80;;;8.03;;
64957;SDS011;51486;50.232;19.208;2023-02-22T00:58:56;23.13;;;8.53;;
64957;SDS011;51486;50.232;19.208;2023-02-22T01:01:42;17.10;;;7.57;;
64957;SDS011;51486;50.232;19.208;2023-02-22T01:04:28;29.60;;;8.30;;
64957;SDS011;51486;50.232;19.208;2023-02-22T01:07:14;32.03;;;8.97;;
64957;SDS011;51486;50.232;19.208;2023-02-22T01:10:00;20.00;;;8.40;;
64957;SDS011;51486;50.232;19.208;2023-02-22T01:12:46;23.93;;;8.13;;
64957;SDS011;51486;50.232;19.208;2023-02-22T01:15:35;25.60;;;8.90;;
64957;SDS011;51486;50.232;19.208;2023-02-22T01:18:22;19.93;;;8.53;;
64957;SDS011;51486;50.232;19.208;2023-02-22T01:21:08;25.57;;;7.87;;
64957;SDS011;51486;50.232;19.208;2023-02-22T01:23:53;20.10;;;8.23;;
64957;SDS011;51486;50.232;19.208;2023-02-22T01:26:39;28.57;;;8.93;;
64957;SDS011;51486;50.232;19.208;2023-02-22T01:29:25;23.23;;;7.13;;
64957;SDS011;51486;50.232;19.208;2023-02-22T01:32:10;24.60;;;8.20;;
64957;SDS011;51486;50.232;19.208;2023-02-22T01:34:56;23.77;;;8.20;;
64957;SDS011;51486;50.232;19.208;2023-02-22T01:37:42;26.67;;;9.17;;
64957;SDS011;51486;50.232;19.208;2023-02-22T01:40:30;25.80;;;9.10;;
64957;SDS011;51486;50.232;19.208;2023-02-22T01:43:28;27.47;;;7.97;;
64957;SDS011;51486;50.232;19.208;2023-02-22T01:46:19;21.53;;;7.83;;
64957;SDS011;51486;50.232;19.208;2023-02-22T01:49:05;22.53;;;9.13;;
64957;SDS011;51486;50.232;19.208;2023-02-22T01:51:52;23.13;;;8.33;;
64957;SDS011;51486;50.232;19.208;2023-02-22T01:55:01;29.57;;;9.13;;
64957;SDS011;51486;50.232;19.208;2023-02-22T01:57:46;24.83;;;9.00;;
64957;SDS011;51486;50.232;19.208;2023-02-22T02:00:32;31.77;;;9.90;;
64957;SDS011;51486;50.232;19.208;2023-02-22T02:03:19;23.00;;;9.70;;
64957;SDS011;51486;50.232;19.208;2023-02-22T02:06:10;20.60;;;9.73;;
64957;SDS011;51486;50.232;19.208;2023-02-22T02:09:12;24.47;;;10.07;;
64957;SDS011;51486;50.232;19.208;2023-02-22T02:12:07;32.57;;;9.33;;
64957;SDS011;51486;50.232;19.208;2023-02-22T02:18:17;30.60;;;11.43;;
64957;SDS011;51486;50.232;19.208;2023-02-22T02:35:44;44.63;;;12.20;;
64957;SDS011;51486;50.232;19.208;2023-02-22T02:41:23;52.37;;;12.33;;
64957;SDS011;51486;50.232;19.208;2023-02-22T02:44:18;26.40;;;10.13;;
64957;SDS011;51486;50.232;19.208;2023-02-22T02:47:24;44.83;;;12.10;;
64957;SDS011;51486;50.232;19.208;2023-02-22T02:50:23;37.80;;;12.17;;
64957;SDS011;51486;50.232;19.208;2023-02-22T02:53:13;38.73;;;11.30;;
64957;SDS011;51486;50.232;19.208;2023-02-22T02:56:02;35.50;;;11.20;;
64957;SDS011;51486;50.232;19.208;2023-02-22T02:58:49;39.33;;;12.27;;
64957;SDS011;51486;50.232;19.208;2023-02-22T03:13:35;39.33;;;13.50;;
64957;SDS011;51486;50.232;19.208;2023-02-22T03:22:20;52.53;;;12.20;;
64957;SDS011;51486;50.232;19.208;2023-02-22T03:25:10;36.17;;;12.77;;
64957;SDS011;51486;50.232;19.208;2023-02-22T03:28:08;32.73;;;12.00;;
64957;SDS011;51486;50.232;19.208;2023-02-22T03:30:58;39.70;;;12.67;;
64957;SDS011;51486;50.232;19.208;2023-02-22T03:33:50;37.80;;;12.17;;
64957;SDS011;51486;50.232;19.208;2023-02-22T03:36:44;34.10;;;12.57;;
64957;SDS011;51486;50.232;19.208;2023-02-22T03:39:34;29.80;;;11.70;;
64957;SDS011;51486;50.232;19.208;2023-02-22T03:42:27;41.67;;;13.43;;
64957;SDS011;51486;50.232;19.208;2023-02-22T03:45:16;54.20;;;13.97;;
64957;SDS011;51486;50.232;19.208;2023-02-22T03:48:10;39.97;;;14.13;;
64957;SDS011;51486;50.232;19.208;2023-02-22T03:51:03;35.13;;;14.03;;
64957;SDS011;51486;50.232;19.208;2023-02-22T03:53:49;48.80;;;14.10;;
64957;SDS011;51486;50.232;19.208;2023-02-22T03:56:38;35.57;;;12.17;;
64957;SDS011;51486;50.232;19.208;2023-02-22T03:59:31;37.20;;;12.33;;
64957;SDS011;51486;50.232;19.208;2023-02-22T04:02:17;34.47;;;14.60;;
64957;SDS011;51486;50.232;19.208;2023-02-22T04:05:03;39.90;;;13.60;;
64957;SDS011;51486;50.232;19.208;2023-02-22T04:07:53;39.93;;;14.83;;
64957;SDS011;51486;50.232;19.208;2023-02-22T04:10:39;24.73;;;10.80;;
64957;SDS011;51486;50.232;19.208;2023-02-22T04:13:25;39.00;;;15.70;;
64957;SDS011;51486;50.232;19.208;2023-02-22T04:16:11;54.10;;;17.93;;
64957;SDS011;51486;50.232;19.208;2023-02-22T04:18:57;40.17;;;15.10;;
64957;SDS011;51486;50.232;19.208;2023-02-22T04:21:43;61.67;;;21.13;;
64957;SDS011;51486;50.232;19.208;2023-02-22T04:24:29;66.50;;;20.67;;
64957;SDS011;51486;50.232;19.208;2023-02-22T04:27:14;53.37;;;20.57;;
64957;SDS011;51486;50.232;19.208;2023-02-22T04:30:00;579.03;;;127.73;;
64957;SDS011;51486;50.232;19.208;2023-02-22T04:32:46;185.73;;;49.40;;
64957;SDS011;51486;50.232;19.208;2023-02-22T04:35:33;214.03;;;57.43;;
64957;SDS011;51486;50.232;19.208;2023-02-22T04:38:18;216.87;;;53.00;;
64957;SDS011;51486;50.232;19.208;2023-02-22T04:41:04;155.17;;;45.87;;
64957;SDS011;51486;50.232;19.208;2023-02-22T04:43:50;131.47;;;39.87;;
64957;SDS011;51486;50.232;19.208;2023-02-22T04:46:36;235.13;;;57.17;;
64957;SDS011;51486;50.232;19.208;2023-02-22T04:49:22;548.90;;;135.67;;
64957;SDS011;51486;50.232;19.208;2023-02-22T04:52:08;237.07;;;63.33;;
64957;SDS011;51486;50.232;19.208;2023-02-22T04:54:54;134.90;;;41.43;;
64957;SDS011;51486;50.232;19.208;2023-02-22T04:57:39;116.60;;;34.23;;
64957;SDS011;51486;50.232;19.208;2023-02-22T05:00:25;244.90;;;53.80;;
64957;SDS011;51486;50.232;19.208;2023-02-22T05:03:11;207.40;;;55.77;;
64957;SDS011;51486;50.232;19.208;2023-02-22T05:05:57;203.10;;;48.97;;
64957;SDS011;51486;50.232;19.208;2023-02-22T05:08:43;143.60;;;43.07;;
64957;SDS011;51486;50.232;19.208;2023-02-22T05:11:28;137.43;;;41.10;;
64957;SDS011;51486;50.232;19.208;2023-02-22T05:14:14;126.87;;;39.97;;
64957;SDS011;51486;50.232;19.208;2023-02-22T05:17:00;101.20;;;34.50;;
64957;SDS011;51486;50.232;19.208;2023-02-22T05:19:46;308.53;;;63.27;;
64957;SDS011;51486;50.232;19.208;2023-02-22T05:22:32;135.07;;;39.50;;
64957;SDS011;51486;50.232;19.208;2023-02-22T05:25:17;109.93;;;36.87;;
64957;SDS011;51486;50.232;19.208;2023-02-22T05:28:07;70.63;;;27.87;;
64957;SDS011;51486;50.232;19.208;2023-02-22T05:30:55;59.37;;;24.73;;
64957;SDS011;51486;50.232;19.208;2023-02-22T05:33:41;66.17;;;26.53;;
64957;SDS011;51486;50.232;19.208;2023-02-22T05:36:27;77.53;;;28.07;;
64957;SDS011;51486;50.232;19.208;2023-02-22T05:39:13;66.10;;;27.90;;
64957;SDS011;51486;50.232;19.208;2023-02-22T05:41:58;74.07;;;26.17;;
64957;SDS011;51486;50.232;19.208;2023-02-22T05:44:44;63.60;;;25.07;;
64957;SDS011;51486;50.232;19.208;2023-02-22T05:47:30;82.07;;;30.97;;
64957;SDS011;51486;50.232;19.208;2023-02-22T05:50:16;79.60;;;28.37;;
64957;SDS011;51486;50.232;19.208;2023-02-22T05:53:03;77.03;;;32.23;;
64957;SDS011;51486;50.232;19.208;2023-02-22T05:55:50;99.57;;;32.17;;
64957;SDS011;51486;50.232;19.208;2023-02-22T05:58:36;91.33;;;32.63;;
64957;SDS011;51486;50.232;19.208;2023-02-22T06:01:22;72.90;;;28.70;;
64957;SDS011;51486;50.232;19.208;2023-02-22T06:04:07;69.03;;;29.43;;
64957;SDS011;51486;50.232;19.208;2023-02-22T06:06:53;74.17;;;27.73;;
64957;SDS011;51486;50.232;19.208;2023-02-22T06:09:39;69.93;;;27.07;;
64957;SDS011;51486;50.232;19.208;2023-02-22T06:12:25;71.33;;;28.43;;
64957;SDS011;51486;50.232;19.208;2023-02-22T06:15:11;82.40;;;27.77;;
64957;SDS011;51486;50.232;19.208;2023-02-22T06:17:58;75.30;;;28.23;;
64957;SDS011;51486;50.232;19.208;2023-02-22T06:20:44;58.83;;;24.70;;
64957;SDS011;51486;50.232;19.208;2023-02-22T06:23:30;70.87;;;23.97;;
64957;SDS011;51486;50.232;19.208;2023-02-22T06:26:16;52.53;;;20.87;;
64957;SDS011;51486;50.232;19.208;2023-02-22T06:29:02;63.53;;;21.70;;
64957;SDS011;51486;50.232;19.208;2023-02-22T06:31:50;54.67;;;19.70;;
64957;SDS011;51486;50.232;19.208;2023-02-22T06:34:36;68.13;;;19.53;;
64957;SDS011;51486;50.232;19.208;2023-02-22T06:37:21;59.10;;;20.80;;
64957;SDS011;51486;50.232;19.208;2023-02-22T06:40:07;67.67;;;25.40;;
64957;SDS011;51486;50.232;19.208;2023-02-22T06:42:56;70.53;;;25.57;;
64957;SDS011;51486;50.232;19.208;2023-02-22T06:45:42;115.77;;;39.33;;
64957;SDS011;51486;50.232;19.208;2023-02-22T06:48:28;109.93;;;37.97;;
64957;SDS011;51486;50.232;19.208;2023-02-22T06:51:14;117.33;;;40.57;;
64957;SDS011;51486;50.232;19.208;2023-02-22T06:53:59;89.23;;;39.63;;
64957;SDS011;51486;50.232;19.208;2023-02-22T06:56:45;100.17;;;34.07;;
64957;SDS011;51486;50.232;19.208;2023-02-22T06:59:31;95.47;;;34.30;;
64957;SDS011;51486;50.232;19.208;2023-02-22T07:02:16;73.77;;;28.10;;
64957;SDS011;51486;50.232;19.208;2023-02-22T07:05:02;65.87;;;25.57;;
64957;SDS011;51486;50.232;19.208;2023-02-22T07:07:49;70.60;;;24.67;;
64957;SDS011;51486;50.232;19.208;2023-02-22T07:10:37;46.30;;;20.03;;
64957;SDS011;51486;50.232;19.208;2023-02-22T07:13:24;53.77;;;22.13;;
64957;SDS011;51486;50.232;19.208;2023-02-22T07:16:10;71.37;;;25.03;;
64957;SDS011;51486;50.232;19.208;2023-02-22T07:18:56;73.90;;;25.63;;
64957;SDS011;51486;50.232;19.208;2023-02-22T07:21:42;49.33;;;22.37;;
64957;SDS011;51486;50.232;19.208;2023-02-22T07:24:27;58.30;;;19.80;;
64957;SDS011;51486;50.232;19.208;2023-02-22T07:27:13;50.73;;;18.60;;
64957;SDS011;51486;50.232;19.208;2023-02-22T07:29:59;58.53;;;21.07;;
64957;SDS011;51486;50.232;19.208;2023-02-22T07:32:45;60.63;;;20.63;;
64957;SDS011;51486;50.232;19.208;2023-02-22T07:35:32;55.03;;;22.03;;
64957;SDS011;51486;50.232;19.208;2023-02-22T07:38:22;52.83;;;18.70;;
64957;SDS011;51486;50.232;19.208;2023-02-22T07:41:08;56.60;;;20.40;;
64957;SDS011;51486;50.232;19.208;2023-02-22T07:43:54;61.60;;;20.93;;
64957;SDS011;51486;50.232;19.208;2023-02-22T07:46:39;53.77;;;19.33;;
64957;SDS011;51486;50.232;19.208;2023-02-22T07:49:25;64.60;;;20.07;;
64957;SDS011;51486;50.232;19.208;2023-02-22T07:52:11;60.57;;;19.60;;
64957;SDS011;51486;50.232;19.208;2023-02-22T07:54:57;46.33;;;21.60;;
64957;SDS011;51486;50.232;19.208;2023-02-22T07:57:44;95.57;;;21.43;;
64957;SDS011;51486;50.232;19.208;2023-02-22T08:00:32;51.20;;;19.60;;
64957;SDS011;51486;50.232;19.208;2023-02-22T08:03:21;44.33;;;17.67;;
64957;SDS011;51486;50.232;19.208;2023-02-22T08:06:08;57.83;;;20.47;;
64957;SDS011;51486;50.232;19.208;2023-02-22T08:08:53;51.97;;;16.77;;
64957;SDS011;51486;50.232;19.208;2023-02-22T08:11:39;37.07;;;16.83;;
64957;SDS011;51486;50.232;19.208;2023-02-22T08:14:26;42.53;;;17.30;;
64957;SDS011;51486;50.232;19.208;2023-02-22T08:17:11;47.07;;;16.83;;
64957;SDS011;51486;50.232;19.208;2023-02-22T08:19:57;46.73;;;17.13;;
64957;SDS011;51486;50.232;19.208;2023-02-22T08:22:43;45.00;;;17.13;;
64957;SDS011;51486;50.232;19.208;2023-02-22T08:25:29;41.80;;;15.83;;
64957;SDS011;51486;50.232;19.208;2023-02-22T08:28:16;46.37;;;18.27;;
64957;SDS011;51486;50.232;19.208;2023-02-22T08:31:04;33.37;;;13.43;;
64957;SDS011;51486;50.232;19.208;2023-02-22T08:33:52;41.00;;;14.40;;
64957;SDS011;51486;50.232;19.208;2023-02-22T08:36:40;34.23;;;13.73;;
64957;SDS011;51486;50.232;19.208;2023-02-22T08:39:26;53.50;;;13.67;;
64957;SDS011;51486;50.232;19.208;2023-02-22T08:42:12;32.17;;;11.77;;
64957;SDS011;51486;50.232;19.208;2023-02-22T08:44:58;31.13;;;12.23;;
64957;SDS011;51486;50.232;19.208;2023-02-22T08:47:44;37.83;;;12.77;;
64957;SDS011;51486;50.232;19.208;2023-02-22T08:50:30;32.50;;;12.03;;
64957;SDS011;51486;50.232;19.208;2023-02-22T08:53:18;33.60;;;11.80;;
64957;SDS011;51486;50.232;19.208;2023-02-22T08:56:04;32.43;;;13.10;;
64957;SDS011;51486;50.232;19.208;2023-02-22T08:58:50;28.03;;;11.57;;
64957;SDS011;51486;50.232;19.208;2023-02-22T09:01:36;29.37;;;10.60;;
64957;SDS011;51486;50.232;19.208;2023-02-22T09:04:21;36.80;;;12.27;;
64957;SDS011;51486;50.232;19.208;2023-02-22T09:07:07;25.87;;;11.43;;
64957;SDS011;51486;50.232;19.208;2023-02-22T09:09:53;35.33;;;10.93;;
64957;SDS011;51486;50.232;19.208;2023-02-22T09:12:38;19.33;;;8.57;;
64957;SDS011;51486;50.232;19.208;2023-02-22T09:15:24;19.23;;;7.33;;
64957;SDS011;51486;50.232;19.208;2023-02-22T09:18:11;28.60;;;8.13;;
64957;SDS011;51486;50.232;19.208;2023-02-22T09:20:58;20.87;;;7.73;;
64957;SDS011;51486;50.232;19.208;2023-02-22T09:23:45;19.70;;;7.77;;
64957;SDS011;51486;50.232;19.208;2023-02-22T09:26:36;28.33;;;7.17;;
64957;SDS011;51486;50.232;19.208;2023-02-22T09:29:24;16.90;;;7.77;;
64957;SDS011;51486;50.232;19.208;2023-02-22T09:32:12;19.23;;;8.13;;
64957;SDS011;51486;50.232;19.208;2023-02-22T09:34:57;28.17;;;9.43;;
64957;SDS011;51486;50.232;19.208;2023-02-22T09:37:43;15.63;;;6.43;;
64957;SDS011;51486;50.232;19.208;2023-02-22T09:40:30;33.97;;;7.77;;
64957;SDS011;51486;50.232;19.208;2023-02-22T09:46:34;32.90;;;7.57;;
64957;SDS011;51486;50.232;19.208;2023-02-22T09:50:09;19.30;;;6.00;;
64957;SDS011;51486;50.232;19.208;2023-02-22T09:55:50;15.33;;;6.93;;
64957;SDS011;51486;50.232;19.208;2023-02-22T09:58:38;15.87;;;6.53;;
64957;SDS011;51486;50.232;19.208;2023-02-22T10:01:28;23.53;;;6.37;;
64957;SDS011;51486;50.232;19.208;2023-02-22T10:04:24;21.60;;;6.87;;
64957;SDS011;51486;50.232;19.208;2023-02-22T10:07:28;15.87;;;7.33;;
64957;SDS011;51486;50.232;19.208;2023-02-22T10:10:18;18.93;;;7.17;;
64957;SDS011;51486;50.232;19.208;2023-02-22T10:13:13;19.27;;;8.20;;
64957;SDS011;51486;50.232;19.208;2023-02-22T10:16:59;14.33;;;6.23;;
64957;SDS011;51486;50.232;19.208;2023-02-22T10:25:29;17.13;;;6.33;;
64957;SDS011;51486;50.232;19.208;2023-02-22T10:28:22;30.73;;;6.80;;
64957;SDS011;51486;50.232;19.208;2023-02-22T10:31:25;16.03;;;5.33;;
64957;SDS011;51486;50.232;19.208;2023-02-22T10:34:15;20.17;;;5.73;;
64957;SDS011;51486;50.232;19.208;2023-02-22T10:40:12;21.80;;;6.83;;
64957;SDS011;51486;50.232;19.208;2023-02-22T10:43:05;14.00;;;6.07;;
64957;SDS011;51486;50.232;19.208;2023-02-22T10:45:54;11.37;;;4.37;;
64957;SDS011;51486;50.232;19.208;2023-02-22T10:48:43;23.23;;;4.73;;
64957;SDS011;51486;50.232;19.208;2023-02-22T10:51:31;9.60;;;4.37;;
64957;SDS011;51486;50.232;19.208;2023-02-22T10:54:25;8.83;;;4.80;;
64957;SDS011;51486;50.232;19.208;2023-02-22T10:57:20;8.30;;;3.53;;
64957;SDS011;51486;50.232;19.208;2023-02-22T11:00:29;14.27;;;3.50;;
64957;SDS011;51486;50.232;19.208;2023-02-22T11:03:18;14.10;;;4.03;;
64957;SDS011;51486;50.232;19.208;2023-02-22T11:06:17;6.90;;;3.20;;
64957;SDS011;51486;50.232;19.208;2023-02-22T11:09:11;9.63;;;3.40;;
64957;SDS011;51486;50.232;19.208;2023-02-22T11:12:09;10.67;;;3.60;;
64957;SDS011;51486;50.232;19.208;2023-02-22T11:18:01;14.60;;;3.90;;
64957;SDS011;51486;50.232;19.208;2023-02-22T11:20:47;18.93;;;3.87;;
64957;SDS011;51486;50.232;19.208;2023-02-22T11:23:33;10.50;;;4.43;;
64957;SDS011;51486;50.232;19.208;2023-02-22T11:26:20;13.97;;;4.43;;
64957;SDS011;51486;50.232;19.208;2023-02-22T11:29:11;8.13;;;3.73;;
64957;SDS011;51486;50.232;19.208;2023-02-22T11:32:12;14.30;;;4.73;;
64957;SDS011;51486;50.232;19.208;2023-02-22T11:35:16;19.87;;;4.03;;
64957;SDS011;51486;50.232;19.208;2023-02-22T11:38:08;26.77;;;8.07;;
64957;SDS011;51486;50.232;19.208;2023-02-22T11:41:12;11.30;;;4.63;;
64957;SDS011;51486;50.232;19.208;2023-02-22T11:47:08;10.13;;;3.57;;
64957;SDS011;51486;50.232;19.208;2023-02-22T11:49:56;17.90;;;4.50;;
64957;SDS011;51486;50.232;19.208;2023-02-22T11:52:43;9.97;;;3.43;;
64957;SDS011;51486;50.232;19.208;2023-02-22T11:55:34;13.70;;;3.50;;
64957;SDS011;51486;50.232;19.208;2023-02-22T12:01:48;13.37;;;4.33;;
64957;SDS011;51486;50.232;19.208;2023-02-22T12:19:55;13.87;;;3.40;;
64957;SDS011;51486;50.232;19.208;2023-02-22T12:23:02;5.37;;;2.73;;
64957;SDS011;51486;50.232;19.208;2023-02-22T12:26:04;13.67;;;5.43;;
64957;SDS011;51486;50.232;19.208;2023-02-22T12:29:00;8.63;;;3.63;;
64957;SDS011;51486;50.232;19.208;2023-02-22T12:32:00;12.27;;;3.73;;
64957;SDS011;51486;50.232;19.208;2023-02-22T12:35:18;17.63;;;4.67;;
64957;SDS011;51486;50.232;19.208;2023-02-22T12:38:14;7.93;;;3.10;;
64957;SDS011;51486;50.232;19.208;2023-02-22T12:44:19;17.67;;;4.27;;
64957;SDS011;51486;50.232;19.208;2023-02-22T12:47:13;10.03;;;4.00;;
64957;SDS011;51486;50.232;19.208;2023-02-22T12:50:09;10.00;;;4.90;;
64957;SDS011;51486;50.232;19.208;2023-02-22T12:53:00;9.43;;;3.50;;
64957;SDS011;51486;50.232;19.208;2023-02-22T13:02:30;7.57;;;3.77;;
64957;SDS011;51486;50.232;19.208;2023-02-22T13:05:20;16.60;;;4.00;;
64957;SDS011;51486;50.232;19.208;2023-02-22T13:14:28;8.50;;;3.53;;
64957;SDS011;51486;50.232;19.208;2023-02-22T13:17:31;18.97;;;5.60;;
64957;SDS011;51486;50.232;19.208;2023-02-22T13:27:25;11.57;;;5.07;;
64957;SDS011;51486;50.232;19.208;2023-02-22T13:43:02;16.90;;;6.47;;
64957;SDS011;51486;50.232;19.208;2023-02-22T13:45:57;19.00;;;7.03;;
64957;SDS011;51486;50.232;19.208;2023-02-22T13:52:28;14.10;;;5.53;;
64957;SDS011;51486;50.232;19.208;2023-02-22T13:55:25;17.53;;;5.13;;
64957;SDS011;51486;50.232;19.208;2023-02-22T13:58:16;17.00;;;6.43;;
64957;SDS011;51486;50.232;19.208;2023-02-22T14:01:02;10.80;;;5.47;;
64957;SDS011;51486;50.232;19.208;2023-02-22T14:03:48;10.83;;;5.27;;
64957;SDS011;51486;50.232;19.208;2023-02-22T14:06:34;17.43;;;5.20;;
64957;SDS011;51486;50.232;19.208;2023-02-22T14:15:16;15.23;;;5.60;;
64957;SDS011;51486;50.232;19.208;2023-02-22T14:18:12;21.43;;;4.70;;
64957;SDS011;51486;50.232;19.208;2023-02-22T14:21:04;16.93;;;4.90;;
64957;SDS011;51486;50.232;19.208;2023-02-22T14:23:53;9.97;;;3.80;;
64957;SDS011;51486;50.232;19.208;2023-02-22T14:26:43;12.40;;;4.60;;
64957;SDS011;51486;50.232;19.208;2023-02-22T14:29:53;10.47;;;4.77;;
64957;SDS011;51486;50.232;19.208;2023-02-22T14:32:43;12.50;;;4.77;;
64957;SDS011;51486;50.232;19.208;2023-02-22T14:35:37;16.90;;;5.33;;
64957;SDS011;51486;50.232;19.208;2023-02-22T14:38:25;16.30;;;5.50;;
64957;SDS011;51486;50.232;19.208;2023-02-22T14:41:12;13.30;;;5.23;;
64957;SDS011;51486;50.232;19.208;2023-02-22T14:44:01;21.03;;;4.97;;
64957;SDS011;51486;50.232;19.208;2023-02-22T14:46:48;17.37;;;6.23;;
64957;SDS011;51486;50.232;19.208;2023-02-22T14:49:39;23.87;;;5.60;;
64957;SDS011;51486;50.232;19.208;2023-02-22T14:52:28;17.73;;;4.90;;
64957;SDS011;51486;50.232;19.208;2023-02-22T14:55:23;16.93;;;4.33;;
64957;SDS011;51486;50.232;19.208;2023-02-22T14:58:20;12.53;;;5.20;;
64957;SDS011;51486;50.232;19.208;2023-02-22T15:04:25;13.27;;;5.27;;
64957;SDS011;51486;50.232;19.208;2023-02-22T15:07:21;15.03;;;5.17;;
64957;SDS011;51486;50.232;19.208;2023-02-22T15:10:19;10.63;;;4.50;;
64957;SDS011;51486;50.232;19.208;2023-02-22T15:13:18;12.83;;;5.80;;
64957;SDS011;51486;50.232;19.208;2023-02-22T15:16:12;14.97;;;5.50;;
64957;SDS011;51486;50.232;19.208;2023-02-22T15:19:03;13.10;;;4.93;;
64957;SDS011;51486;50.232;19.208;2023-02-22T15:21:52;8.97;;;4.73;;
64957;SDS011;51486;50.232;19.208;2023-02-22T15:24:39;11.70;;;4.53;;
64957;SDS011;51486;50.232;19.208;2023-02-22T15:27:25;12.33;;;4.27;;
64957;SDS011;51486;50.232;19.208;2023-02-22T15:30:15;15.53;;;5.17;;
64957;SDS011;51486;50.232;19.208;2023-02-22T15:35:59;21.20;;;5.17;;
64957;SDS011;51486;50.232;19.208;2023-02-22T15:38:51;20.90;;;5.63;;
64957;SDS011;51486;50.232;19.208;2023-02-22T15:41:40;11.00;;;4.50;;
64957;SDS011;51486;50.232;19.208;2023-02-22T15:44:25;14.13;;;5.03;;
64957;SDS011;51486;50.232;19.208;2023-02-22T15:47:17;7.70;;;4.17;;
64957;SDS011;51486;50.232;19.208;2023-02-22T15:53:25;16.87;;;5.10;;
64957;SDS011;51486;50.232;19.208;2023-02-22T15:56:25;28.47;;;5.17;;
64957;SDS011;51486;50.232;19.208;2023-02-22T15:59:15;24.27;;;7.00;;
64957;SDS011;51486;50.232;19.208;2023-02-22T16:02:02;13.50;;;5.97;;
64957;SDS011;51486;50.232;19.208;2023-02-22T16:04:49;22.80;;;6.77;;
64957;SDS011;51486;50.232;19.208;2023-02-22T16:07:47;22.77;;;6.50;;
64957;SDS011;51486;50.232;19.208;2023-02-22T16:10:34;10.80;;;5.40;;
64957;SDS011;51486;50.232;19.208;2023-02-22T16:13:22;10.37;;;4.67;;
64957;SDS011;51486;50.232;19.208;2023-02-22T16:22:34;15.03;;;5.17;;
64957;SDS011;51486;50.232;19.208;2023-02-22T16:25:25;17.77;;;5.60;;
64957;SDS011;51486;50.232;19.208;2023-02-22T16:28:23;24.93;;;7.10;;
64957;SDS011;51486;50.232;19.208;2023-02-22T16:31:20;14.57;;;5.50;;
64957;SDS011;51486;50.232;19.208;2023-02-22T16:34:09;30.77;;;6.03;;
64957;SDS011;51486;50.232;19.208;2023-02-22T16:36:55;20.07;;;5.93;;
64957;SDS011;51486;50.232;19.208;2023-02-22T16:39:42;14.27;;;5.53;;
64957;SDS011;51486;50.232;19.208;2023-02-22T16:42:29;13.97;;;5.53;;
64957;SDS011;51486;50.232;19.208;2023-02-22T16:45:19;22.90;;;7.03;;
64957;SDS011;51486;50.232;19.208;2023-02-22T16:48:13;17.33;;;7.23;;
64957;SDS011;51486;50.232;19.208;2023-02-22T16:51:15;17.13;;;7.73;;
64957;SDS011;51486;50.232;19.208;2023-02-22T16:54:05;25.47;;;8.17;;
64957;SDS011;51486;50.232;19.208;2023-02-22T16:56:54;120.07;;;34.20;;
64957;SDS011;51486;50.232;19.208;2023-02-22T16:59:40;121.93;;;35.43;;
64957;SDS011;51486;50.232;19.208;2023-02-22T17:02:26;103.47;;;31.83;;
64957;SDS011;51486;50.232;19.208;2023-02-22T17:05:13;114.27;;;29.43;;
64957;SDS011;51486;50.232;19.208;2023-02-22T17:08:00;102.80;;;30.73;;
64957;SDS011;51486;50.232;19.208;2023-02-22T17:10:46;71.67;;;24.20;;
64957;SDS011;51486;50.232;19.208;2023-02-22T17:13:35;84.53;;;24.13;;
64957;SDS011;51486;50.232;19.208;2023-02-22T17:16:22;51.33;;;18.77;;
64957;SDS011;51486;50.232;19.208;2023-02-22T17:19:15;41.00;;;14.37;;
64957;SDS011;51486;50.232;19.208;2023-02-22T17:22:05;39.10;;;14.47;;
64957;SDS011;51486;50.232;19.208;2023-02-22T17:24:53;27.70;;;13.43;;
64957;SDS011;51486;50.232;19.208;2023-02-22T17:27:39;33.93;;;13.00;;
64957;SDS011;51486;50.232;19.208;2023-02-22T17:30:25;32.77;;;11.80;;
64957;SDS011;51486;50.232;19.208;2023-02-22T17:33:13;28.17;;;10.70;;
64957;SDS011;51486;50.232;19.208;2023-02-22T17:36:00;29.13;;;10.53;;
64957;SDS011;51486;50.232;19.208;2023-02-22T17:38:50;28.57;;;10.73;;
64957;SDS011;51486;50.232;19.208;2023-02-22T17:41:36;36.10;;;12.13;;
64957;SDS011;51486;50.232;19.208;2023-02-22T17:44:23;32.27;;;12.47;;
64957;SDS011;51486;50.232;19.208;2023-02-22T17:47:10;36.10;;;13.40;;
64957;SDS011;51486;50.232;19.208;2023-02-22T17:49:55;43.00;;;11.90;;
64957;SDS011;51486;50.232;19.208;2023-02-22T17:52:42;37.37;;;13.17;;
64957;SDS011;51486;50.232;19.208;2023-02-22T17:55:28;36.87;;;11.70;;
64957;SDS011;51486;50.232;19.208;2023-02-22T17:58:14;28.07;;;11.50;;
64957;SDS011;51486;50.232;19.208;2023-02-22T18:01:01;36.87;;;12.50;;
64957;SDS011;51486;50.232;19.208;2023-02-22T18:03:47;29.87;;;10.93;;
64957;SDS011;51486;50.232;19.208;2023-02-22T18:06:33;32.77;;;12.57;;
64957;SDS011;51486;50.232;19.208;2023-02-22T18:09:19;34.40;;;11.90;;
64957;SDS011;51486;50.232;19.208;2023-02-22T18:12:05;37.10;;;13.97;;
64957;SDS011;51486;50.232;19.208;2023-02-22T18:14:51;55.60;;;14.53;;
64957;SDS011;51486;50.232;19.208;2023-02-22T18:17:37;41.67;;;14.10;;
64957;SDS011;51486;50.232;19.208;2023-02-22T18:20:23;35.10;;;13.97;;
64957;SDS011;51486;50.232;19.208;2023-02-22T18:23:24;43.17;;;15.93;;
64957;SDS011;51486;50.232;19.208;2023-02-22T18:26:13;40.67;;;14.87;;
64957;SDS011;51486;50.232;19.208;2023-02-22T18:29:00;53.40;;;16.70;;
64957;SDS011;51486;50.232;19.208;2023-02-22T18:31:46;45.83;;;16.90;;
64957;SDS011;51486;50.232;19.208;2023-02-22T18:34:31;39.53;;;16.43;;
64957;SDS011;51486;50.232;19.208;2023-02-22T18:37:17;51.03;;;19.20;;
64957;SDS011;51486;50.232;19.208;2023-02-22T18:40:04;50.97;;;18.47;;